| time (UTC) | temp F | wind direction | speed knots | gust knots | rain 1hr in | rain 24hr in | rain mn in | humidity % | barometer mb |
| 20260503200519 | 61 | 203 | 0.9 | 7.0 | 0.01 | 0.05 | 0.05 | 38 | 1017.0 |
| 20260503195518 | 61 | 203 | 0.9 | 3.5 | 0.01 | 0.05 | 0.05 | 38 | 1017.2 |
| 20260503194519 | 62 | 158 | 2.6 | 6.1 | 0.01 | 0.05 | 0.05 | 39 | 1017.5 |
| 20260503193539 | 61 | 158 | 0.9 | 7.8 | 0.01 | 0.05 | 0.05 | 38 | 1017.5 |
| 20260503192519 | 62 | 158 | 0.9 | 7.0 | 0.01 | 0.05 | 0.05 | 37 | 1017.8 |
| 20260503191518 | 61 | 203 | 0.9 | 7.0 | 0.01 | 0.05 | 0.05 | 37 | 1017.9 |
| 20260503190519 | 60 | 0.0 | 1.7 | 0.00 | 0.04 | 0.04 | 37 | 1018.0 | |
| 20260503185518 | 60 | 0.0 | 0.9 | 0.00 | 0.04 | 0.04 | 39 | 1018.2 | |
| 20260503184518 | 60 | 0.0 | 5.2 | 0.00 | 0.04 | 0.04 | 36 | 1018.4 | |
| 20260503183518 | 60 | 158 | 0.9 | 8.7 | 0.00 | 0.04 | 0.04 | 39 | 1018.4 |
| 20260503182518 | 60 | 0.0 | 0.0 | 0.00 | 0.04 | 0.04 | 41 | 1018.5 | |
| 20260503181519 | 59 | 0.0 | 7.0 | 0.00 | 0.04 | 0.04 | 40 | 1018.8 | |
| 20260503180518 | 59 | 203 | 0.9 | 7.0 | 0.00 | 0.04 | 0.04 | 38 | 1019.0 |
| 20260503175538 | 59 | 180 | 0.9 | 4.3 | 0.00 | 0.04 | 0.04 | 40 | 1019.0 |
| 20260503174518 | 60 | 0.0 | 3.5 | 0.00 | 0.04 | 0.04 | 38 | 1019.2 | |
| 20260503173518 | 59 | 0.0 | 2.6 | 0.01 | 0.04 | 0.04 | 39 | 1019.4 | |
| 20260503172518 | 59 | 225 | 0.9 | 5.2 | 0.01 | 0.04 | 0.04 | 38 | 1019.6 |
| 20260503171518 | 59 | 158 | 0.9 | 3.5 | 0.01 | 0.04 | 0.04 | 37 | 1019.9 |
| 20260503170518 | 59 | 0.0 | 0.0 | 0.01 | 0.04 | 0.04 | 40 | 1020.0 | |
| 20260503150518 | 55 | 0.0 | 0.0 | 0.01 | 0.03 | 0.03 | 44 | 1020.9 | |
| 20260503130520 | 49 | 0.0 | 0.0 | 0.01 | 0.01 | 0.01 | 61 | 1020.7 | |
| 20260503110540 | 33 | 0.0 | 0.0 | 0.00 | 0.00 | 0.00 | 89 | 1019.6 | |
| 20260503081519 | 35 | 0.0 | 0.0 | 0.00 | 0.00 | 0.00 | 86 | 1018.8 | |
| 20260503080519 | 36 | 0.0 | 0.0 | 0.00 | 0.00 | 0.00 | 85 | 1018.6 | |
| 20260503072539 | 37 | 0.0 | 0.0 | 0.00 | 0.00 | 0.00 | 83 | 1018.6 | |
| 20260503071519 | 37 | 0.0 | 0.0 | 0.00 | 0.00 | 0.00 | 82 | 1018.6 | |
| 20260503070519 | 37 | 0.0 | 0.0 | 0.00 | 0.00 | 0.00 | 82 | 1018.5 | |
| 20260503054519 | 40 | 0.0 | 0.0 | 0.00 | 0.00 | 0.00 | 77 | 1018.9 | |
| 20260503053519 | 41 | 0.0 | 0.0 | 0.00 | 0.00 | 0.00 | 76 | 1018.9 | |
| 20260503052519 | 41 | 0.0 | 0.0 | 0.00 | 0.00 | 0.00 | 76 | 1019.0 | |
| 20260503051539 | 42 | 0.0 | 0.0 | 0.00 | 0.00 | 0.00 | 74 | 1019.0 | |
| 20260503050519 | 42 | 0.0 | 0.0 | 0.00 | 0.00 | 0.00 | 73 | 1019.0 | |
| 20260503045539 | 43 | 0.0 | 0.0 | 0.00 | 0.00 | 0.00 | 72 | 1019.0 | |
| 20260503044520 | 43 | 0.0 | 0.0 | 0.00 | 0.00 | 0.00 | 71 | 1019.0 | |
| 20260503043600 | 43 | 0.0 | 0.0 | 0.00 | 0.00 | 0.00 | 72 | 1018.9 | |
| 20260503042540 | 43 | 0.0 | 0.0 | 0.00 | 0.00 | 0.00 | 74 | 1018.9 | |
| 20260503041519 | 43 | 0.0 | 0.0 | 0.00 | 0.00 | 0.00 | 75 | 1018.8 | |
| 20260503040520 | 42 | 0.0 | 0.0 | 0.00 | 0.00 | 0.00 | 78 | 1018.6 | |
| 20260503035600 | 42 | 0.0 | 0.0 | 0.00 | 0.00 | 0.00 | 82 | 1018.7 | |
| 20260503034519 | 42 | 0.0 | 0.0 | 0.00 | 0.00 | 0.00 | 81 | 1018.7 | |
| 20260503033520 | 42 | 0.0 | 0.0 | 0.00 | 0.00 | 0.00 | 80 | 1018.7 | |
| 20260503032519 | 43 | 0.0 | 0.0 | 0.00 | 0.00 | 0.00 | 79 | 1018.5 | |
| 20260503031520 | 43 | 0.0 | 0.0 | 0.00 | 0.00 | 0.00 | 79 | 1018.5 | |
| 20260503030519 | 43 | 0.0 | 0.0 | 0.00 | 0.00 | 0.00 | 79 | 1018.5 | |
| 20260503025520 | 43 | 0.0 | 0.0 | 0.00 | 0.00 | 0.00 | 78 | 1018.4 | |
| 20260503024559 | 44 | 0.0 | 0.0 | 0.00 | 0.00 | 0.00 | 78 | 1018.4 | |
| 20260503023519 | 44 | 0.0 | 0.0 | 0.00 | 0.00 | 0.00 | 77 | 1018.1 | |
| 20260503022519 | 45 | 0.0 | 0.0 | 0.00 | 0.00 | 0.00 | 76 | 1018.0 | |
| 20260503021519 | 45 | 0.0 | 0.0 | 0.00 | 0.00 | 0.00 | 74 | 1017.9 | |
| 20260503020519 | 46 | 0.0 | 0.0 | 0.00 | 0.00 | 0.00 | 73 | 1017.7 | |
| 20260503015519 | 46 | 0.0 | 0.0 | 0.00 | 0.00 | 0.00 | 72 | 1017.6 | |
| 20260503014519 | 46 | 0.0 | 0.0 | 0.00 | 0.01 | 0.00 | 70 | 1017.5 | |
| 20260503013539 | 47 | 0.0 | 0.0 | 0.00 | 0.01 | 0.00 | 69 | 1017.5 | |
| 20260503012518 | 48 | 0.0 | 0.0 | 0.00 | 0.01 | 0.00 | 68 | 1017.4 | |
| 20260503011519 | 48 | 0.0 | 0.0 | 0.00 | 0.01 | 0.00 | 67 | 1017.3 | |
| 20260503010519 | 49 | 0.0 | 0.0 | 0.00 | 0.01 | 0.00 | 66 | 1017.2 | |
| 20260503005519 | 49 | 0.0 | 0.0 | 0.00 | 0.01 | 0.00 | 66 | 1017.0 | |
| 20260503004518 | 50 | 0.0 | 0.0 | 0.00 | 0.01 | 0.00 | 65 | 1016.9 | |
| 20260503003519 | 50 | 0.0 | 0.0 | 0.00 | 0.01 | 0.00 | 64 | 1016.8 | |
| 20260503002518 | 51 | 0.0 | 0.0 | 0.00 | 0.01 | 0.00 | 63 | 1016.6 | |
| 20260503001519 | 51 | 0.0 | 0.9 | 0.00 | 0.01 | 0.00 | 61 | 1016.4 | |
| 20260503000519 | 51 | 0.0 | 0.0 | 0.00 | 0.01 | 0.00 | 60 | 1016.4 | |
| 20260502235519 | 51 | 0.0 | 0.0 | 0.00 | 0.01 | 0.00 | 58 | 1016.2 | |
| 20260502234519 | 52 | 0.0 | 0.0 | 0.00 | 0.01 | 0.00 | 58 | 1016.1 | |
| 20260502233519 | 52 | 0.0 | 0.0 | 0.00 | 0.01 | 0.00 | 58 | 1016.0 | |
| 20260502232518 | 52 | 0.0 | 0.0 | 0.00 | 0.01 | 0.00 | 57 | 1016.0 | |
| 20260502231519 | 53 | 0.0 | 0.0 | 0.00 | 0.01 | 0.00 | 56 | 1016.0 | |
| 20260502230519 | 53 | 0.0 | 0.0 | 0.00 | 0.01 | 0.00 | 59 | 1016.1 | |
| 20260502225518 | 53 | 0.0 | 0.0 | 0.00 | 0.01 | 0.00 | 57 | 1016.0 | |
| 20260502224539 | 53 | 0.0 | 0.0 | 0.00 | 0.01 | 0.00 | 57 | 1016.0 | |
| 20260502223518 | 53 | 0.0 | 0.0 | 0.00 | 0.01 | 0.00 | 60 | 1016.1 | |
| 20260502222519 | 53 | 0.0 | 0.0 | 0.00 | 0.01 | 0.00 | 59 | 1016.2 | |
| 20260502221518 | 53 | 0.0 | 0.0 | 0.00 | 0.01 | 0.00 | 57 | 1016.3 | |
| 20260502220519 | 53 | 0.0 | 0.0 | 0.00 | 0.01 | 0.00 | 58 | 1016.2 | |
| 20260502215519 | 53 | 0.0 | 0.0 | 0.00 | 0.01 | 0.00 | 56 | 1016.2 | |
| 20260502214519 | 53 | 0.0 | 0.0 | 0.00 | 0.01 | 0.00 | 58 | 1016.1 | |
| 20260502213518 | 53 | 0.0 | 0.0 | 0.00 | 0.01 | 0.00 | 58 | 1016.0 | |
| 20260502212519 | 54 | 0.0 | 0.0 | 0.00 | 0.01 | 0.00 | 59 | 1016.0 | |
| 20260502211518 | 54 | 0.0 | 0.0 | 0.00 | 0.01 | 0.00 | 59 | 1016.0 | |
| 20260502210519 | 54 | 0.0 | 0.0 | 0.00 | 0.01 | 0.00 | 59 | 1016.0 | |
| 20260502205518 | 54 | 0.0 | 0.0 | 0.00 | 0.01 | 0.00 | 59 | 1016.0 | |
| 20260502204518 | 54 | 0.0 | 0.0 | 0.00 | 0.01 | 0.00 | 58 | 1016.0 | |
| 20260502203519 | 54 | 0.0 | 0.0 | 0.00 | 0.01 | 0.00 | 56 | 1016.0 | |
| 20260502202518 | 54 | 0.0 | 0.0 | 0.00 | 0.01 | 0.00 | 57 | 1016.2 | |
| 20260502201538 | 53 | 0.0 | 0.0 | 0.00 | 0.01 | 0.00 | 56 | 1016.2 |